sensor_id;sensor_type;location;lat;lon;timestamp;P1;durP1;ratioP1;P2;durP2;ratioP2
62990;SDS011;49084;48.204;16.202;2023-04-15T00:01:24;1.45;;;0.00;;
62990;SDS011;49084;48.204;16.202;2023-04-15T00:03:51;1.13;;;0.10;;
62990;SDS011;49084;48.204;16.202;2023-04-15T00:06:18;0.10;;;0.10;;
62990;SDS011;49084;48.204;16.202;2023-04-15T00:08:45;2.03;;;0.10;;
62990;SDS011;49084;48.204;16.202;2023-04-15T00:11:11;1.15;;;0.15;;
62990;SDS011;49084;48.204;16.202;2023-04-15T00:13:37;0.17;;;0.10;;
62990;SDS011;49084;48.204;16.202;2023-04-15T00:16:03;5.68;;;2.40;;
62990;SDS011;49084;48.204;16.202;2023-04-15T00:18:30;3.45;;;1.45;;
62990;SDS011;49084;48.204;16.202;2023-04-15T00:20:56;26.80;;;8.60;;
62990;SDS011;49084;48.204;16.202;2023-04-15T00:23:22;12.27;;;3.50;;
62990;SDS011;49084;48.204;16.202;2023-04-15T00:25:48;3.80;;;1.65;;
62990;SDS011;49084;48.204;16.202;2023-04-15T00:28:14;3.97;;;1.80;;
62990;SDS011;49084;48.204;16.202;2023-04-15T00:30:40;2.53;;;1.10;;
62990;SDS011;49084;48.204;16.202;2023-04-15T00:33:06;1.20;;;0.28;;
62990;SDS011;49084;48.204;16.202;2023-04-15T00:35:32;0.85;;;0.30;;
62990;SDS011;49084;48.204;16.202;2023-04-15T00:37:58;0.25;;;0.20;;
62990;SDS011;49084;48.204;16.202;2023-04-15T00:40:24;1.48;;;0.68;;
62990;SDS011;49084;48.204;16.202;2023-04-15T00:42:50;0.75;;;0.30;;
62990;SDS011;49084;48.204;16.202;2023-04-15T00:45:16;0.35;;;0.30;;
62990;SDS011;49084;48.204;16.202;2023-04-15T00:47:43;1.50;;;0.47;;
62990;SDS011;49084;48.204;16.202;2023-04-15T00:50:09;3.08;;;0.52;;
62990;SDS011;49084;48.204;16.202;2023-04-15T00:52:36;3.13;;;0.82;;
62990;SDS011;49084;48.204;16.202;2023-04-15T00:55:03;0.85;;;0.60;;
62990;SDS011;49084;48.204;16.202;2023-04-15T00:57:29;0.65;;;0.57;;
62990;SDS011;49084;48.204;16.202;2023-04-15T00:59:55;0.65;;;0.47;;
62990;SDS011;49084;48.204;16.202;2023-04-15T01:02:22;1.20;;;0.50;;
62990;SDS011;49084;48.204;16.202;2023-04-15T01:04:48;0.47;;;0.30;;
62990;SDS011;49084;48.204;16.202;2023-04-15T01:07:14;0.50;;;0.50;;
62990;SDS011;49084;48.204;16.202;2023-04-15T01:09:40;0.20;;;0.20;;
62990;SDS011;49084;48.204;16.202;2023-04-15T01:12:06;1.80;;;0.50;;
62990;SDS011;49084;48.204;16.202;2023-04-15T01:14:34;1.80;;;0.30;;
62990;SDS011;49084;48.204;16.202;2023-04-15T01:17:00;0.82;;;0.20;;
62990;SDS011;49084;48.204;16.202;2023-04-15T01:19:26;1.05;;;0.32;;
62990;SDS011;49084;48.204;16.202;2023-04-15T01:21:52;0.43;;;0.15;;
62990;SDS011;49084;48.204;16.202;2023-04-15T01:24:19;2.17;;;0.38;;
62990;SDS011;49084;48.204;16.202;2023-04-15T01:26:45;2.08;;;0.50;;
62990;SDS011;49084;48.204;16.202;2023-04-15T01:29:11;0.40;;;0.40;;
62990;SDS011;49084;48.204;16.202;2023-04-15T01:31:37;1.88;;;0.45;;
62990;SDS011;49084;48.204;16.202;2023-04-15T01:34:03;2.35;;;0.52;;
62990;SDS011;49084;48.204;16.202;2023-04-15T01:36:29;0.38;;;0.30;;
62990;SDS011;49084;48.204;16.202;2023-04-15T01:38:55;0.70;;;0.70;;
62990;SDS011;49084;48.204;16.202;2023-04-15T01:41:23;3.13;;;0.60;;
62990;SDS011;49084;48.204;16.202;2023-04-15T01:43:53;0.95;;;0.60;;
62990;SDS011;49084;48.204;16.202;2023-04-15T01:46:19;2.28;;;0.40;;
62990;SDS011;49084;48.204;16.202;2023-04-15T01:48:45;0.70;;;0.47;;
62990;SDS011;49084;48.204;16.202;2023-04-15T01:51:11;0.75;;;0.63;;
62990;SDS011;49084;48.204;16.202;2023-04-15T01:53:36;0.35;;;0.35;;
62990;SDS011;49084;48.204;16.202;2023-04-15T01:56:02;0.85;;;0.70;;
62990;SDS011;49084;48.204;16.202;2023-04-15T01:58:28;1.88;;;0.70;;
62990;SDS011;49084;48.204;16.202;2023-04-15T02:00:54;2.45;;;0.55;;
62990;SDS011;49084;48.204;16.202;2023-04-15T02:03:20;2.13;;;0.70;;
62990;SDS011;49084;48.204;16.202;2023-04-15T02:05:45;1.73;;;0.90;;
62990;SDS011;49084;48.204;16.202;2023-04-15T02:08:11;1.15;;;0.73;;
62990;SDS011;49084;48.204;16.202;2023-04-15T02:10:37;1.08;;;0.80;;
62990;SDS011;49084;48.204;16.202;2023-04-15T02:13:03;2.40;;;0.75;;
62990;SDS011;49084;48.204;16.202;2023-04-15T02:15:29;0.50;;;0.40;;
62990;SDS011;49084;48.204;16.202;2023-04-15T02:17:55;0.98;;;0.43;;
62990;SDS011;49084;48.204;16.202;2023-04-15T02:20:21;0.17;;;0.17;;
62990;SDS011;49084;48.204;16.202;2023-04-15T02:22:47;0.20;;;0.20;;
62990;SDS011;49084;48.204;16.202;2023-04-15T02:25:13;0.40;;;0.40;;
62990;SDS011;49084;48.204;16.202;2023-04-15T02:27:41;0.90;;;0.70;;
62990;SDS011;49084;48.204;16.202;2023-04-15T02:30:07;2.05;;;0.45;;
62990;SDS011;49084;48.204;16.202;2023-04-15T02:32:33;0.28;;;0.28;;
62990;SDS011;49084;48.204;16.202;2023-04-15T02:35:06;0.50;;;0.10;;
62990;SDS011;49084;48.204;16.202;2023-04-15T02:37:34;0.20;;;0.20;;
62990;SDS011;49084;48.204;16.202;2023-04-15T02:40:05;1.45;;;0.17;;
62990;SDS011;49084;48.204;16.202;2023-04-15T02:42:32;0.20;;;0.20;;
62990;SDS011;49084;48.204;16.202;2023-04-15T02:44:58;0.10;;;0.10;;
62990;SDS011;49084;48.204;16.202;2023-04-15T02:47:23;0.60;;;0.05;;
62990;SDS011;49084;48.204;16.202;2023-04-15T02:49:49;0.00;;;0.00;;
62990;SDS011;49084;48.204;16.202;2023-04-15T02:52:14;0.13;;;0.00;;
62990;SDS011;49084;48.204;16.202;2023-04-15T02:54:40;0.13;;;0.10;;
62990;SDS011;49084;48.204;16.202;2023-04-15T02:57:06;0.00;;;0.00;;
62990;SDS011;49084;48.204;16.202;2023-04-15T02:59:32;2.28;;;0.00;;
62990;SDS011;49084;48.204;16.202;2023-04-15T03:01:57;0.00;;;0.00;;
62990;SDS011;49084;48.204;16.202;2023-04-15T03:04:25;0.20;;;0.20;;
62990;SDS011;49084;48.204;16.202;2023-04-15T03:09:20;0.00;;;0.00;;
62990;SDS011;49084;48.204;16.202;2023-04-15T03:11:46;0.00;;;0.00;;
62990;SDS011;49084;48.204;16.202;2023-04-15T03:14:11;0.05;;;0.00;;
62990;SDS011;49084;48.204;16.202;2023-04-15T03:16:37;0.17;;;0.00;;
62990;SDS011;49084;48.204;16.202;2023-04-15T03:19:02;0.10;;;0.00;;
62990;SDS011;49084;48.204;16.202;2023-04-15T03:21:28;0.10;;;0.03;;
62990;SDS011;49084;48.204;16.202;2023-04-15T03:23:56;0.05;;;0.00;;
62990;SDS011;49084;48.204;16.202;2023-04-15T03:26:27;1.30;;;0.10;;
62990;SDS011;49084;48.204;16.202;2023-04-15T03:28:54;0.15;;;0.03;;
62990;SDS011;49084;48.204;16.202;2023-04-15T03:31:20;1.25;;;0.10;;
62990;SDS011;49084;48.204;16.202;2023-04-15T03:33:46;0.00;;;0.00;;
62990;SDS011;49084;48.204;16.202;2023-04-15T03:36:11;0.00;;;0.00;;
62990;SDS011;49084;48.204;16.202;2023-04-15T03:38:37;0.10;;;0.00;;
62990;SDS011;49084;48.204;16.202;2023-04-15T03:41:03;2.83;;;0.00;;
62990;SDS011;49084;48.204;16.202;2023-04-15T03:43:29;0.00;;;0.00;;
62990;SDS011;49084;48.204;16.202;2023-04-15T03:45:55;0.63;;;0.00;;
62990;SDS011;49084;48.204;16.202;2023-04-15T03:48:21;2.20;;;0.08;;
62990;SDS011;49084;48.204;16.202;2023-04-15T03:50:46;0.00;;;0.00;;
62990;SDS011;49084;48.204;16.202;2023-04-15T03:53:12;0.15;;;0.00;;
62990;SDS011;49084;48.204;16.202;2023-04-15T03:55:38;0.28;;;0.00;;
62990;SDS011;49084;48.204;16.202;2023-04-15T03:58:04;0.00;;;0.00;;
62990;SDS011;49084;48.204;16.202;2023-04-15T04:00:29;0.00;;;0.00;;
62990;SDS011;49084;48.204;16.202;2023-04-15T04:02:55;0.40;;;0.10;;
62990;SDS011;49084;48.204;16.202;2023-04-15T04:05:21;0.00;;;0.00;;
62990;SDS011;49084;48.204;16.202;2023-04-15T04:07:47;0.00;;;0.00;;
62990;SDS011;49084;48.204;16.202;2023-04-15T04:10:12;1.45;;;0.10;;
62990;SDS011;49084;48.204;16.202;2023-04-15T04:12:38;0.00;;;0.00;;
62990;SDS011;49084;48.204;16.202;2023-04-15T04:15:04;0.00;;;0.00;;
62990;SDS011;49084;48.204;16.202;2023-04-15T04:17:30;0.30;;;0.00;;
62990;SDS011;49084;48.204;16.202;2023-04-15T04:19:56;0.85;;;0.30;;
62990;SDS011;49084;48.204;16.202;2023-04-15T04:22:22;1.27;;;0.40;;
62990;SDS011;49084;48.204;16.202;2023-04-15T04:24:48;1.98;;;0.20;;
62990;SDS011;49084;48.204;16.202;2023-04-15T04:27:15;0.22;;;0.22;;
62990;SDS011;49084;48.204;16.202;2023-04-15T04:29:40;0.47;;;0.20;;
62990;SDS011;49084;48.204;16.202;2023-04-15T04:32:06;0.68;;;0.32;;
62990;SDS011;49084;48.204;16.202;2023-04-15T04:34:32;1.00;;;0.15;;
62990;SDS011;49084;48.204;16.202;2023-04-15T04:36:58;0.80;;;0.30;;
62990;SDS011;49084;48.204;16.202;2023-04-15T04:39:23;0.77;;;0.68;;
62990;SDS011;49084;48.204;16.202;2023-04-15T04:41:49;0.20;;;0.20;;
62990;SDS011;49084;48.204;16.202;2023-04-15T04:44:16;1.48;;;0.85;;
62990;SDS011;49084;48.204;16.202;2023-04-15T04:46:42;2.67;;;0.40;;
62990;SDS011;49084;48.204;16.202;2023-04-15T04:49:07;0.73;;;0.35;;
62990;SDS011;49084;48.204;16.202;2023-04-15T04:51:33;1.05;;;0.60;;
62990;SDS011;49084;48.204;16.202;2023-04-15T04:53:59;1.70;;;0.68;;
62990;SDS011;49084;48.204;16.202;2023-04-15T04:56:25;2.17;;;0.52;;
62990;SDS011;49084;48.204;16.202;2023-04-15T04:58:51;0.82;;;0.70;;
62990;SDS011;49084;48.204;16.202;2023-04-15T05:01:16;1.48;;;0.55;;
62990;SDS011;49084;48.204;16.202;2023-04-15T05:03:42;1.48;;;0.82;;
62990;SDS011;49084;48.204;16.202;2023-04-15T05:06:08;1.65;;;0.93;;
62990;SDS011;49084;48.204;16.202;2023-04-15T05:08:34;1.48;;;0.65;;
62990;SDS011;49084;48.204;16.202;2023-04-15T05:11:00;0.93;;;0.30;;
62990;SDS011;49084;48.204;16.202;2023-04-15T05:13:26;2.15;;;0.40;;
62990;SDS011;49084;48.204;16.202;2023-04-15T05:15:52;0.38;;;0.20;;
62990;SDS011;49084;48.204;16.202;2023-04-15T05:18:17;2.10;;;0.25;;
62990;SDS011;49084;48.204;16.202;2023-04-15T05:20:43;1.17;;;0.20;;
62990;SDS011;49084;48.204;16.202;2023-04-15T05:23:09;0.30;;;0.20;;
62990;SDS011;49084;48.204;16.202;2023-04-15T05:25:34;0.50;;;0.30;;
62990;SDS011;49084;48.204;16.202;2023-04-15T05:28:00;2.05;;;0.20;;
62990;SDS011;49084;48.204;16.202;2023-04-15T05:30:26;0.32;;;0.20;;
62990;SDS011;49084;48.204;16.202;2023-04-15T05:32:51;0.38;;;0.30;;
62990;SDS011;49084;48.204;16.202;2023-04-15T05:35:17;2.25;;;1.33;;
62990;SDS011;49084;48.204;16.202;2023-04-15T05:37:43;0.10;;;0.10;;
62990;SDS011;49084;48.204;16.202;2023-04-15T05:40:09;0.55;;;0.20;;
62990;SDS011;49084;48.204;16.202;2023-04-15T05:42:35;0.40;;;0.20;;
62990;SDS011;49084;48.204;16.202;2023-04-15T05:45:01;1.23;;;0.30;;
62990;SDS011;49084;48.204;16.202;2023-04-15T05:47:29;0.30;;;0.20;;
62990;SDS011;49084;48.204;16.202;2023-04-15T05:49:55;1.52;;;0.20;;
62990;SDS011;49084;48.204;16.202;2023-04-15T05:52:23;0.85;;;0.30;;
62990;SDS011;49084;48.204;16.202;2023-04-15T05:54:48;0.63;;;0.40;;
62990;SDS011;49084;48.204;16.202;2023-04-15T05:57:14;0.47;;;0.25;;
62990;SDS011;49084;48.204;16.202;2023-04-15T05:59:40;1.27;;;0.40;;
62990;SDS011;49084;48.204;16.202;2023-04-15T06:02:06;0.77;;;0.30;;
62990;SDS011;49084;48.204;16.202;2023-04-15T06:04:33;0.25;;;0.25;;
62990;SDS011;49084;48.204;16.202;2023-04-15T06:06:59;1.05;;;0.20;;
62990;SDS011;49084;48.204;16.202;2023-04-15T06:09:25;3.42;;;0.40;;
62990;SDS011;49084;48.204;16.202;2023-04-15T06:11:51;2.08;;;0.10;;
62990;SDS011;49084;48.204;16.202;2023-04-15T06:14:17;1.27;;;0.10;;
62990;SDS011;49084;48.204;16.202;2023-04-15T06:16:42;3.42;;;0.17;;
62990;SDS011;49084;48.204;16.202;2023-04-15T06:19:08;0.40;;;0.20;;
62990;SDS011;49084;48.204;16.202;2023-04-15T06:21:34;0.10;;;0.00;;
62990;SDS011;49084;48.204;16.202;2023-04-15T06:24:00;0.95;;;0.20;;
62990;SDS011;49084;48.204;16.202;2023-04-15T06:26:26;1.08;;;0.10;;
62990;SDS011;49084;48.204;16.202;2023-04-15T06:28:52;1.35;;;0.20;;
62990;SDS011;49084;48.204;16.202;2023-04-15T06:31:18;0.75;;;0.10;;
62990;SDS011;49084;48.204;16.202;2023-04-15T06:33:43;0.20;;;0.20;;
62990;SDS011;49084;48.204;16.202;2023-04-15T06:36:09;0.15;;;0.10;;
62990;SDS011;49084;48.204;16.202;2023-04-15T06:38:35;0.20;;;0.20;;
62990;SDS011;49084;48.204;16.202;2023-04-15T06:41:01;1.10;;;0.20;;
62990;SDS011;49084;48.204;16.202;2023-04-15T06:43:28;0.40;;;0.30;;
62990;SDS011;49084;48.204;16.202;2023-04-15T06:45:54;0.55;;;0.22;;
62990;SDS011;49084;48.204;16.202;2023-04-15T06:48:20;0.63;;;0.60;;
62990;SDS011;49084;48.204;16.202;2023-04-15T06:50:46;3.92;;;0.30;;
62990;SDS011;49084;48.204;16.202;2023-04-15T06:53:13;0.82;;;0.38;;
62990;SDS011;49084;48.204;16.202;2023-04-15T06:55:38;1.23;;;0.50;;
62990;SDS011;49084;48.204;16.202;2023-04-15T06:58:05;0.68;;;0.38;;
62990;SDS011;49084;48.204;16.202;2023-04-15T07:00:31;0.43;;;0.20;;
62990;SDS011;49084;48.204;16.202;2023-04-15T07:02:58;1.95;;;1.00;;
62990;SDS011;49084;48.204;16.202;2023-04-15T07:05:27;3.13;;;0.32;;
62990;SDS011;49084;48.204;16.202;2023-04-15T07:07:53;1.00;;;0.30;;
62990;SDS011;49084;48.204;16.202;2023-04-15T07:10:19;1.95;;;0.22;;
62990;SDS011;49084;48.204;16.202;2023-04-15T07:12:45;1.85;;;0.47;;
62990;SDS011;49084;48.204;16.202;2023-04-15T07:15:11;0.50;;;0.10;;
62990;SDS011;49084;48.204;16.202;2023-04-15T07:17:37;0.20;;;0.20;;
62990;SDS011;49084;48.204;16.202;2023-04-15T07:20:03;0.22;;;0.10;;
62990;SDS011;49084;48.204;16.202;2023-04-15T07:22:29;0.40;;;0.32;;
62990;SDS011;49084;48.204;16.202;2023-04-15T07:24:55;0.95;;;0.40;;
62990;SDS011;49084;48.204;16.202;2023-04-15T07:27:20;4.55;;;0.98;;
62990;SDS011;49084;48.204;16.202;2023-04-15T07:29:46;3.75;;;1.92;;
62990;SDS011;49084;48.204;16.202;2023-04-15T07:32:12;1.23;;;1.05;;
62990;SDS011;49084;48.204;16.202;2023-04-15T07:34:38;1.38;;;0.50;;
62990;SDS011;49084;48.204;16.202;2023-04-15T07:37:03;2.05;;;0.70;;
62990;SDS011;49084;48.204;16.202;2023-04-15T07:39:29;1.35;;;1.20;;
62990;SDS011;49084;48.204;16.202;2023-04-15T07:41:55;3.22;;;1.63;;
62990;SDS011;49084;48.204;16.202;2023-04-15T07:44:20;3.95;;;2.67;;
62990;SDS011;49084;48.204;16.202;2023-04-15T07:46:46;12.48;;;2.63;;
62990;SDS011;49084;48.204;16.202;2023-04-15T07:49:12;2.10;;;1.90;;
62990;SDS011;49084;48.204;16.202;2023-04-15T07:51:38;2.95;;;2.22;;
62990;SDS011;49084;48.204;16.202;2023-04-15T07:54:04;3.75;;;1.70;;
62990;SDS011;49084;48.204;16.202;2023-04-15T07:56:29;1.65;;;1.40;;
62990;SDS011;49084;48.204;16.202;2023-04-15T07:58:55;3.83;;;1.65;;
62990;SDS011;49084;48.204;16.202;2023-04-15T08:01:21;1.95;;;1.40;;
62990;SDS011;49084;48.204;16.202;2023-04-15T08:03:46;2.80;;;1.60;;
62990;SDS011;49084;48.204;16.202;2023-04-15T08:06:12;3.30;;;1.80;;
62990;SDS011;49084;48.204;16.202;2023-04-15T08:08:38;3.22;;;1.77;;
62990;SDS011;49084;48.204;16.202;2023-04-15T08:11:04;2.97;;;2.00;;
62990;SDS011;49084;48.204;16.202;2023-04-15T08:13:29;3.13;;;1.60;;
62990;SDS011;49084;48.204;16.202;2023-04-15T08:16:12;1.70;;;1.13;;
62990;SDS011;49084;48.204;16.202;2023-04-15T08:18:48;3.00;;;1.10;;
62990;SDS011;49084;48.204;16.202;2023-04-15T08:21:16;3.78;;;0.90;;
62990;SDS011;49084;48.204;16.202;2023-04-15T08:23:43;1.98;;;0.95;;
62990;SDS011;49084;48.204;16.202;2023-04-15T08:26:10;3.13;;;1.80;;
62990;SDS011;49084;48.204;16.202;2023-04-15T08:28:37;2.80;;;1.10;;
62990;SDS011;49084;48.204;16.202;2023-04-15T08:31:04;3.50;;;1.35;;
62990;SDS011;49084;48.204;16.202;2023-04-15T08:33:30;6.00;;;1.30;;
62990;SDS011;49084;48.204;16.202;2023-04-15T08:36:02;2.40;;;1.30;;
62990;SDS011;49084;48.204;16.202;2023-04-15T08:38:28;1.40;;;1.30;;
62990;SDS011;49084;48.204;16.202;2023-04-15T08:40:54;1.77;;;1.67;;
62990;SDS011;49084;48.204;16.202;2023-04-15T08:43:23;2.55;;;0.70;;
62990;SDS011;49084;48.204;16.202;2023-04-15T08:45:52;0.50;;;0.40;;
62990;SDS011;49084;48.204;16.202;2023-04-15T08:48:19;3.22;;;0.80;;
62990;SDS011;49084;48.204;16.202;2023-04-15T08:50:46;0.70;;;0.70;;
62990;SDS011;49084;48.204;16.202;2023-04-15T08:53:13;0.40;;;0.40;;
62990;SDS011;49084;48.204;16.202;2023-04-15T08:55:43;1.10;;;0.30;;
62990;SDS011;49084;48.204;16.202;2023-04-15T08:58:10;0.43;;;0.20;;
62990;SDS011;49084;48.204;16.202;2023-04-15T09:00:36;0.38;;;0.10;;
62990;SDS011;49084;48.204;16.202;2023-04-15T09:03:06;0.43;;;0.20;;
62990;SDS011;49084;48.204;16.202;2023-04-15T09:05:32;0.73;;;0.60;;
62990;SDS011;49084;48.204;16.202;2023-04-15T09:08:00;2.47;;;1.30;;
62990;SDS011;49084;48.204;16.202;2023-04-15T09:10:27;0.25;;;0.10;;
62990;SDS011;49084;48.204;16.202;2023-04-15T09:12:53;3.63;;;0.38;;
62990;SDS011;49084;48.204;16.202;2023-04-15T09:15:19;0.90;;;0.28;;
62990;SDS011;49084;48.204;16.202;2023-04-15T09:17:45;0.73;;;0.40;;
62990;SDS011;49084;48.204;16.202;2023-04-15T09:20:13;0.80;;;0.25;;
62990;SDS011;49084;48.204;16.202;2023-04-15T09:22:40;1.10;;;0.50;;
62990;SDS011;49084;48.204;16.202;2023-04-15T09:27:55;0.65;;;0.30;;
62990;SDS011;49084;48.204;16.202;2023-04-15T09:30:28;0.20;;;0.10;;
62990;SDS011;49084;48.204;16.202;2023-04-15T09:32:58;0.00;;;0.00;;
62990;SDS011;49084;48.204;16.202;2023-04-15T09:35:26;0.17;;;0.10;;
62990;SDS011;49084;48.204;16.202;2023-04-15T09:37:52;0.25;;;0.10;;
62990;SDS011;49084;48.204;16.202;2023-04-15T09:40:33;1.05;;;0.35;;
62990;SDS011;49084;48.204;16.202;2023-04-15T09:43:01;0.20;;;0.20;;
62990;SDS011;49084;48.204;16.202;2023-04-15T09:45:28;1.63;;;0.40;;
62990;SDS011;49084;48.204;16.202;2023-04-15T09:47:54;0.05;;;0.00;;
62990;SDS011;49084;48.204;16.202;2023-04-15T09:50:21;1.05;;;0.20;;
62990;SDS011;49084;48.204;16.202;2023-04-15T09:52:51;1.58;;;0.10;;
62990;SDS011;49084;48.204;16.202;2023-04-15T09:55:17;1.33;;;0.20;;
62990;SDS011;49084;48.204;16.202;2023-04-15T09:57:43;0.10;;;0.10;;
62990;SDS011;49084;48.204;16.202;2023-04-15T10:00:11;0.22;;;0.00;;
62990;SDS011;49084;48.204;16.202;2023-04-15T10:02:40;0.43;;;0.22;;
62990;SDS011;49084;48.204;16.202;2023-04-15T10:05:10;0.00;;;0.00;;
62990;SDS011;49084;48.204;16.202;2023-04-15T10:07:39;0.00;;;0.00;;
62990;SDS011;49084;48.204;16.202;2023-04-15T10:10:06;0.10;;;0.00;;
62990;SDS011;49084;48.204;16.202;2023-04-15T10:12:33;0.08;;;0.08;;
62990;SDS011;49084;48.204;16.202;2023-04-15T10:15:04;0.40;;;0.00;;
62990;SDS011;49084;48.204;16.202;2023-04-15T10:17:31;0.73;;;0.10;;
62990;SDS011;49084;48.204;16.202;2023-04-15T10:20:02;0.00;;;0.00;;
62990;SDS011;49084;48.204;16.202;2023-04-15T10:22:29;0.10;;;0.10;;
62990;SDS011;49084;48.204;16.202;2023-04-15T10:24:55;0.10;;;0.00;;
62990;SDS011;49084;48.204;16.202;2023-04-15T10:27:22;0.13;;;0.00;;
62990;SDS011;49084;48.204;16.202;2023-04-15T10:29:49;0.32;;;0.00;;
62990;SDS011;49084;48.204;16.202;2023-04-15T10:32:17;2.80;;;0.45;;
62990;SDS011;49084;48.204;16.202;2023-04-15T10:34:45;0.10;;;0.10;;
62990;SDS011;49084;48.204;16.202;2023-04-15T10:37:12;0.10;;;0.00;;
62990;SDS011;49084;48.204;16.202;2023-04-15T10:39:58;0.57;;;0.10;;
62990;SDS011;49084;48.204;16.202;2023-04-15T10:42:24;0.63;;;0.00;;
62990;SDS011;49084;48.204;16.202;2023-04-15T10:44:58;1.85;;;0.20;;
62990;SDS011;49084;48.204;16.202;2023-04-15T10:47:24;0.95;;;0.50;;
62990;SDS011;49084;48.204;16.202;2023-04-15T10:50:00;0.20;;;0.00;;
62990;SDS011;49084;48.204;16.202;2023-04-15T10:52:27;0.20;;;0.20;;
62990;SDS011;49084;48.204;16.202;2023-04-15T10:55:04;1.42;;;0.90;;
62990;SDS011;49084;48.204;16.202;2023-04-15T10:57:45;0.22;;;0.05;;
62990;SDS011;49084;48.204;16.202;2023-04-15T11:05:18;1.38;;;0.30;;
62990;SDS011;49084;48.204;16.202;2023-04-15T11:12:41;2.90;;;1.05;;
62990;SDS011;49084;48.204;16.202;2023-04-15T11:17:51;0.70;;;0.40;;
62990;SDS011;49084;48.204;16.202;2023-04-15T11:20:17;0.28;;;0.25;;
62990;SDS011;49084;48.204;16.202;2023-04-15T11:22:50;0.90;;;0.40;;
62990;SDS011;49084;48.204;16.202;2023-04-15T11:25:23;1.02;;;0.20;;
62990;SDS011;49084;48.204;16.202;2023-04-15T11:27:51;0.38;;;0.38;;
62990;SDS011;49084;48.204;16.202;2023-04-15T11:30:18;1.00;;;0.60;;
62990;SDS011;49084;48.204;16.202;2023-04-15T11:32:47;1.02;;;0.40;;
62990;SDS011;49084;48.204;16.202;2023-04-15T11:35:15;1.80;;;0.30;;
62990;SDS011;49084;48.204;16.202;2023-04-15T11:37:41;0.20;;;0.20;;
62990;SDS011;49084;48.204;16.202;2023-04-15T11:40:07;0.80;;;0.40;;
62990;SDS011;49084;48.204;16.202;2023-04-15T11:42:33;1.73;;;0.25;;
62990;SDS011;49084;48.204;16.202;2023-04-15T11:45:09;1.55;;;0.13;;
62990;SDS011;49084;48.204;16.202;2023-04-15T11:47:39;1.95;;;0.20;;
62990;SDS011;49084;48.204;16.202;2023-04-15T11:50:13;0.47;;;0.22;;
62990;SDS011;49084;48.204;16.202;2023-04-15T11:52:39;1.02;;;0.10;;
62990;SDS011;49084;48.204;16.202;2023-04-15T11:55:05;1.25;;;0.20;;
62990;SDS011;49084;48.204;16.202;2023-04-15T11:57:33;1.17;;;0.30;;
62990;SDS011;49084;48.204;16.202;2023-04-15T11:59:59;1.02;;;0.50;;
62990;SDS011;49084;48.204;16.202;2023-04-15T12:02:29;0.40;;;0.20;;
62990;SDS011;49084;48.204;16.202;2023-04-15T12:05:02;1.13;;;0.20;;
62990;SDS011;49084;48.204;16.202;2023-04-15T12:07:29;0.90;;;0.30;;
62990;SDS011;49084;48.204;16.202;2023-04-15T12:09:55;2.38;;;0.55;;
62990;SDS011;49084;48.204;16.202;2023-04-15T12:12:25;1.25;;;0.55;;
62990;SDS011;49084;48.204;16.202;2023-04-15T12:14:52;1.27;;;0.38;;
62990;SDS011;49084;48.204;16.202;2023-04-15T12:17:18;2.50;;;0.40;;
62990;SDS011;49084;48.204;16.202;2023-04-15T12:19:43;0.85;;;0.25;;
62990;SDS011;49084;48.204;16.202;2023-04-15T12:22:10;0.35;;;0.20;;
62990;SDS011;49084;48.204;16.202;2023-04-15T12:24:37;1.08;;;0.30;;
62990;SDS011;49084;48.204;16.202;2023-04-15T12:27:04;1.15;;;0.50;;
62990;SDS011;49084;48.204;16.202;2023-04-15T12:29:30;0.35;;;0.20;;
62990;SDS011;49084;48.204;16.202;2023-04-15T12:32:17;0.60;;;0.10;;
62990;SDS011;49084;48.204;16.202;2023-04-15T12:34:51;0.47;;;0.10;;
62990;SDS011;49084;48.204;16.202;2023-04-15T12:37:18;0.22;;;0.10;;
62990;SDS011;49084;48.204;16.202;2023-04-15T12:39:45;2.63;;;0.20;;
62990;SDS011;49084;48.204;16.202;2023-04-15T12:42:13;0.30;;;0.15;;
62990;SDS011;49084;48.204;16.202;2023-04-15T12:44:40;0.20;;;0.10;;
62990;SDS011;49084;48.204;16.202;2023-04-15T12:47:06;0.00;;;0.00;;
62990;SDS011;49084;48.204;16.202;2023-04-15T12:49:32;0.90;;;0.10;;
62990;SDS011;49084;48.204;16.202;2023-04-15T12:51:59;0.10;;;0.10;;
62990;SDS011;49084;48.204;16.202;2023-04-15T12:54:25;0.22;;;0.10;;
62990;SDS011;49084;48.204;16.202;2023-04-15T12:56:52;0.30;;;0.17;;
62990;SDS011;49084;48.204;16.202;2023-04-15T12:59:18;0.00;;;0.00;;
62990;SDS011;49084;48.204;16.202;2023-04-15T13:01:45;0.13;;;0.00;;
62990;SDS011;49084;48.204;16.202;2023-04-15T13:04:12;0.88;;;0.15;;
62990;SDS011;49084;48.204;16.202;2023-04-15T13:06:38;0.25;;;0.15;;
62990;SDS011;49084;48.204;16.202;2023-04-15T13:09:04;0.40;;;0.13;;
62990;SDS011;49084;48.204;16.202;2023-04-15T13:11:30;0.20;;;0.10;;
62990;SDS011;49084;48.204;16.202;2023-04-15T13:13:57;0.68;;;0.08;;
62990;SDS011;49084;48.204;16.202;2023-04-15T13:16:27;0.20;;;0.10;;
62990;SDS011;49084;48.204;16.202;2023-04-15T13:18:53;0.17;;;0.10;;
62990;SDS011;49084;48.204;16.202;2023-04-15T13:21:19;0.85;;;0.22;;
62990;SDS011;49084;48.204;16.202;2023-04-15T13:23:45;0.22;;;0.20;;
62990;SDS011;49084;48.204;16.202;2023-04-15T13:26:11;0.00;;;0.00;;
62990;SDS011;49084;48.204;16.202;2023-04-15T13:28:36;0.10;;;0.08;;
62990;SDS011;49084;48.204;16.202;2023-04-15T13:31:02;0.10;;;0.03;;
62990;SDS011;49084;48.204;16.202;2023-04-15T13:33:29;0.10;;;0.00;;
62990;SDS011;49084;48.204;16.202;2023-04-15T13:35:55;0.30;;;0.00;;
62990;SDS011;49084;48.204;16.202;2023-04-15T13:38:21;0.10;;;0.10;;
62990;SDS011;49084;48.204;16.202;2023-04-15T13:40:48;0.03;;;0.00;;
62990;SDS011;49084;48.204;16.202;2023-04-15T13:43:14;0.10;;;0.08;;
62990;SDS011;49084;48.204;16.202;2023-04-15T13:45:39;0.00;;;0.00;;
62990;SDS011;49084;48.204;16.202;2023-04-15T13:48:05;0.30;;;0.10;;
62990;SDS011;49084;48.204;16.202;2023-04-15T13:50:31;0.75;;;0.00;;
62990;SDS011;49084;48.204;16.202;2023-04-15T13:52:56;0.15;;;0.00;;
62990;SDS011;49084;48.204;16.202;2023-04-15T13:55:22;0.20;;;0.00;;
62990;SDS011;49084;48.204;16.202;2023-04-15T13:57:48;0.00;;;0.00;;
62990;SDS011;49084;48.204;16.202;2023-04-15T14:00:14;0.00;;;0.00;;
62990;SDS011;49084;48.204;16.202;2023-04-15T14:02:40;0.00;;;0.00;;
62990;SDS011;49084;48.204;16.202;2023-04-15T14:05:06;0.25;;;0.20;;
62990;SDS011;49084;48.204;16.202;2023-04-15T14:07:32;0.10;;;0.10;;
62990;SDS011;49084;48.204;16.202;2023-04-15T14:10:04;0.20;;;0.20;;
62990;SDS011;49084;48.204;16.202;2023-04-15T14:12:30;0.10;;;0.10;;
62990;SDS011;49084;48.204;16.202;2023-04-15T14:14:56;0.10;;;0.05;;
62990;SDS011;49084;48.204;16.202;2023-04-15T14:17:21;0.30;;;0.10;;
62990;SDS011;49084;48.204;16.202;2023-04-15T14:19:47;0.15;;;0.15;;
62990;SDS011;49084;48.204;16.202;2023-04-15T14:22:13;0.20;;;0.20;;
62990;SDS011;49084;48.204;16.202;2023-04-15T14:24:38;0.63;;;0.13;;
62990;SDS011;49084;48.204;16.202;2023-04-15T14:27:04;0.20;;;0.20;;
62990;SDS011;49084;48.204;16.202;2023-04-15T14:29:30;0.20;;;0.13;;
62990;SDS011;49084;48.204;16.202;2023-04-15T14:31:56;0.10;;;0.05;;
62990;SDS011;49084;48.204;16.202;2023-04-15T14:34:23;0.10;;;0.10;;
62990;SDS011;49084;48.204;16.202;2023-04-15T14:36:49;0.85;;;0.20;;
62990;SDS011;49084;48.204;16.202;2023-04-15T14:39:17;0.40;;;0.10;;
62990;SDS011;49084;48.204;16.202;2023-04-15T14:41:43;2.08;;;0.10;;
62990;SDS011;49084;48.204;16.202;2023-04-15T14:44:09;0.20;;;0.05;;
62990;SDS011;49084;48.204;16.202;2023-04-15T14:46:35;1.13;;;0.20;;
62990;SDS011;49084;48.204;16.202;2023-04-15T14:49:02;0.63;;;0.20;;